createdAt,value
2024-01-05T00:00:54.700Z,5.707
2024-01-05T00:06:01.764Z,9.1649
2024-01-05T00:11:08.380Z,10.0391
2024-01-05T00:16:15.323Z,3.8632
2024-01-05T00:21:22.262Z,3.3316
2024-01-05T00:26:28.785Z,6.3731
2024-01-05T00:31:35.748Z,6.2383
2024-01-05T00:36:42.730Z,7.5629
2024-01-05T00:41:49.312Z,7.2374
2024-01-05T00:46:55.942Z,4.9212
2024-01-05T00:52:02.564Z,9.296
2024-01-05T00:57:11.404Z,12.6177
2024-01-05T01:02:15.943Z,7.6406
2024-01-05T01:07:22.714Z,6.2723
2024-01-05T01:12:34.895Z,10.413
2024-01-05T01:17:36.450Z,8.8004
2024-01-05T01:22:43.050Z,9.6189
2024-01-05T01:27:49.754Z,5.6247
2024-01-05T01:32:56.556Z,7.4044
2024-01-05T01:38:03.297Z,6.8157
2024-01-05T01:43:10.285Z,6.7512
2024-01-05T01:48:17.003Z,10.901
2024-01-05T01:53:23.761Z,6.6569
2024-01-05T01:58:30.663Z,6.1198
2024-01-05T02:03:37.564Z,7.2376
2024-01-05T02:08:44.489Z,4.0455
2024-01-05T02:13:51.136Z,8.2164
2024-01-05T02:18:57.907Z,4.504
2024-01-05T02:24:04.502Z,8.6504
2024-01-05T02:29:10.991Z,5.8392
2024-01-05T02:34:17.636Z,7.376
2024-01-05T02:39:24.428Z,10.9131
2024-01-05T02:44:30.949Z,10.9473
2024-01-05T02:49:37.823Z,4.0726
2024-01-05T02:54:44.586Z,6.8608
2024-01-05T02:59:51.224Z,6.942
2024-01-05T03:04:58.019Z,3.9879
2024-01-05T03:10:04.888Z,7.0156
2024-01-05T03:15:11.765Z,7.0807
2024-01-05T03:20:18.421Z,6.6506
2024-01-05T03:25:24.869Z,4.9447
2024-01-05T03:30:31.704Z,2.994
2024-01-05T03:35:38.655Z,6.7755
2024-01-05T03:40:45.007Z,5.8155
2024-01-05T03:45:51.720Z,4.6739
2024-01-05T03:50:58.632Z,7.2401
2024-01-05T03:56:05.291Z,6.472
2024-01-05T04:01:12.237Z,5.0157
2024-01-05T04:06:18.879Z,6.8151
2024-01-05T04:11:25.188Z,7.0096
2024-01-05T04:16:31.915Z,4.47
2024-01-05T04:21:38.769Z,7.4817
2024-01-05T04:26:45.716Z,6.3964
2024-01-05T04:31:52.086Z,8.4687
2024-01-05T04:36:58.856Z,4.808
2024-01-05T04:42:05.660Z,8.6766
2024-01-05T04:47:12.406Z,8.0986
2024-01-05T04:52:18.961Z,4.9582
2024-01-05T04:57:25.550Z,3.0723
2024-01-05T05:02:32.354Z,7.3626
2024-01-05T05:07:39.166Z,8.9156
2024-01-05T05:12:45.787Z,4.9064
2024-01-05T05:17:54.559Z,7.5749
2024-01-05T05:22:59.401Z,4.5168
2024-01-05T05:28:06.231Z,11.3568
2024-01-05T05:33:13.308Z,10.6037
2024-01-05T05:38:20.010Z,6.0346
2024-01-05T05:43:26.843Z,4.9454
2024-01-05T05:48:33.724Z,4.1793
2024-01-05T05:53:40.112Z,5.5287
2024-01-05T05:58:46.772Z,6.8042
2024-01-05T06:03:53.659Z,6.0015
2024-01-05T06:09:00.595Z,6.5837
2024-01-05T06:14:07.214Z,12.5893
2024-01-05T06:19:14.203Z,6.3825
2024-01-05T06:24:20.826Z,4.2153
2024-01-05T06:29:27.438Z,6.3992
2024-01-05T06:34:34.336Z,3.1679
2024-01-05T06:39:40.873Z,9.2569
2024-01-05T06:44:47.488Z,3.4149
2024-01-05T06:49:54.625Z,4.9984
2024-01-05T06:55:01.172Z,7.5706
2024-01-05T07:00:07.867Z,8.7245
2024-01-05T07:05:14.647Z,4.0817
2024-01-05T07:10:21.250Z,5.306
2024-01-05T07:15:27.978Z,4.9314
2024-01-05T07:20:34.403Z,7.7664
2024-01-05T07:25:40.982Z,4.4271
2024-01-05T07:30:47.630Z,6.1211
2024-01-05T07:35:54.445Z,3.7778
2024-01-05T07:41:01.315Z,6.7221
2024-01-05T07:46:07.962Z,6.1203
2024-01-05T07:51:14.877Z,4.6383
2024-01-05T07:56:21.907Z,7.8497
2024-01-05T08:01:28.455Z,4.8349
2024-01-05T08:06:35.357Z,6.9731
2024-01-05T08:11:42.483Z,7.8963
2024-01-05T08:16:49.059Z,3.9032
2024-01-05T08:21:55.696Z,5.2873
2024-01-05T08:27:02.149Z,8.0775
2024-01-05T08:32:08.978Z,5.7208
2024-01-05T08:37:15.515Z,4.5345
2024-01-05T08:42:22.179Z,3.635
2024-01-05T08:47:29.078Z,6.3329
2024-01-05T08:52:35.802Z,5.8419
2024-01-05T08:57:42.778Z,8.2938
2024-01-05T09:02:49.516Z,7.0394
2024-01-05T09:07:56.225Z,4.6878
2024-01-05T09:13:02.874Z,8.049
2024-01-05T09:18:09.920Z,8.1631
2024-01-05T09:23:16.749Z,7.3709
2024-01-05T09:28:23.554Z,5.9845
2024-01-05T09:33:30.720Z,8.1526
2024-01-05T09:38:37.603Z,3.5655
2024-01-05T09:43:44.354Z,6.6423
2024-01-05T09:48:54.773Z,5.6622
2024-01-05T09:53:58.207Z,6.0023
2024-01-05T09:59:04.901Z,4.5476
2024-01-05T10:04:11.726Z,3.3812
2024-01-05T10:09:18.586Z,5.061
2024-01-05T10:14:25.188Z,5.6567
2024-01-05T10:19:32.324Z,5.5643
2024-01-05T10:24:39.283Z,5.6959
2024-01-05T10:29:46.765Z,9.3527
2024-01-05T10:34:53.646Z,5.874
2024-01-05T10:40:00.413Z,5.0516
2024-01-05T10:45:07.617Z,5.5391
2024-01-05T10:50:14.749Z,5.0186
2024-01-05T10:55:21.525Z,6.4442
2024-01-05T11:00:28.232Z,3.5521
2024-01-05T11:05:35.075Z,6.9773
2024-01-05T11:10:41.902Z,3.0338
2024-01-05T11:15:48.869Z,4.9954
2024-01-05T11:20:55.463Z,5.1497
2024-01-05T11:26:02.479Z,6.6999
2024-01-05T11:31:09.779Z,4.2027
2024-01-05T11:36:16.573Z,2.628
2024-01-05T11:41:23.350Z,6.3022
2024-01-05T11:46:30.050Z,6.1665
2024-01-05T11:51:36.422Z,2.8577
2024-01-05T11:56:43.413Z,2.8285
2024-01-05T12:01:55.128Z,6.8741
2024-01-05T12:06:56.953Z,4.2893
2024-01-05T12:12:03.481Z,3.7846
2024-01-05T12:17:10.109Z,4.1426
2024-01-05T12:22:16.942Z,3.2362
2024-01-05T12:27:23.519Z,5.1603
2024-01-05T12:32:30.441Z,0.9519
2024-01-05T12:37:37.470Z,3.9081
2024-01-05T12:42:44.421Z,4.0525
2024-01-05T12:47:51.413Z,5.9699
2024-01-05T12:52:58.294Z,7.0699
2024-01-05T12:58:05.250Z,6.3305
2024-01-05T13:03:12.229Z,3.4093
2024-01-05T13:08:19.185Z,2.3553
2024-01-05T13:13:26.050Z,5.6028
2024-01-05T13:18:32.879Z,2.7213
2024-01-05T13:23:39.758Z,3.417
2024-01-05T13:28:46.418Z,2.0726
2024-01-05T13:33:53.484Z,2.5387
2024-01-05T13:39:00.196Z,3.1438
2024-01-05T13:44:07.120Z,4.034
2024-01-05T13:49:14.218Z,2.6562
2024-01-05T13:54:21.150Z,1.684
2024-01-05T13:59:27.831Z,2.3051
2024-01-05T14:04:35.114Z,3.1726
2024-01-05T14:09:41.469Z,0.8575
2024-01-05T14:14:47.995Z,2.4985
2024-01-05T14:19:54.675Z,2.4519
2024-01-05T14:25:01.201Z,2.2318
2024-01-05T14:30:08.135Z,2.7761
2024-01-05T14:35:14.545Z,1.118
2024-01-05T14:40:21.412Z,2.2852
2024-01-05T14:45:28.580Z,2.8948
2024-01-05T14:50:34.863Z,1.5563
2024-01-05T14:55:41.731Z,2.635
2024-01-05T15:00:48.907Z,2.0618
2024-01-05T15:05:55.655Z,3.229
2024-01-05T15:12:25.975Z,3.5645
2024-01-05T15:17:33.056Z,1.4327
2024-01-05T15:22:40.083Z,1.865
2024-01-05T15:27:46.758Z,2.6735
2024-01-05T15:32:53.698Z,4.2074
2024-01-05T15:38:00.397Z,3.743
2024-01-05T15:43:07.193Z,1.9626
2024-01-05T15:48:13.801Z,4.6014
2024-01-05T15:53:20.283Z,3.3901
2024-01-05T15:58:26.949Z,4.3454
2024-01-05T16:03:33.666Z,3.1514
2024-01-05T16:08:40.358Z,5.632
2024-01-05T16:13:47.257Z,2.0592
2024-01-05T16:18:54.261Z,3.5999
2024-01-05T16:24:01.092Z,4.7491
2024-01-05T16:29:08.090Z,2.8233
2024-01-05T16:34:15.006Z,1.529
2024-01-05T16:39:21.848Z,4.0287
2024-01-05T16:44:28.631Z,1.6236
2024-01-05T16:49:35.798Z,2.2866
2024-01-05T16:54:42.583Z,3.5626
2024-01-05T16:59:49.232Z,6.4642
2024-01-05T17:04:55.690Z,3.0318
2024-01-05T17:10:02.158Z,4.4529
2024-01-05T17:15:08.512Z,2.3054
2024-01-05T17:20:22.160Z,5.3009
2024-01-05T17:25:22.021Z,5.7892
2024-01-05T17:30:28.864Z,2.2866
2024-01-05T17:35:35.143Z,5.1949
2024-01-05T17:40:41.706Z,7.6957
2024-01-05T17:45:48.547Z,7.8463
2024-01-05T17:50:55.257Z,9.1057
2024-01-05T17:56:01.853Z,8.0845
2024-01-05T18:01:11.960Z,10.2321
2024-01-05T18:06:15.114Z,8.675
2024-01-05T18:11:21.396Z,11.5578
2024-01-05T18:16:28.017Z,9.273
2024-01-05T18:21:34.760Z,13.1814
2024-01-05T18:26:41.217Z,11.0832
2024-01-05T18:31:48.089Z,8.1738
2024-01-05T18:36:54.451Z,8.3576
2024-01-05T18:42:01.272Z,7.3955
2024-01-05T18:47:07.936Z,9.1914
2024-01-05T18:52:14.454Z,6.3384
2024-01-05T18:57:20.995Z,7.7234
2024-01-05T19:02:27.324Z,10.2515
2024-01-05T19:07:34.012Z,12.8067
2024-01-05T19:12:41.995Z,10.4022
2024-01-05T19:17:47.565Z,12.5855
2024-01-05T19:22:54.176Z,13.2891
2024-01-05T19:28:00.697Z,10.1623
2024-01-05T19:33:07.607Z,19.9594
2024-01-05T19:38:14.088Z,21.8583
2024-01-05T19:43:20.758Z,22.6913
2024-01-05T19:48:27.604Z,9.2477
2024-01-05T19:53:34.373Z,9.92
2024-01-05T19:58:40.768Z,10.9264
2024-01-05T20:03:47.432Z,9.7404
2024-01-05T20:08:53.930Z,9.1152
2024-01-05T20:14:00.715Z,11.4223
2024-01-05T20:19:07.818Z,8.1853
2024-01-05T20:24:14.399Z,9.694
2024-01-05T20:29:21.116Z,11.4188
2024-01-05T20:34:28.050Z,11.7788
2024-01-05T20:39:34.702Z,10.1333
2024-01-05T20:44:41.440Z,7.3159
2024-01-05T20:49:48.165Z,8.6059
2024-01-05T20:54:54.712Z,10.2707
2024-01-05T21:00:01.416Z,9.6129
2024-01-05T21:05:08.131Z,5.2764
2024-01-05T21:10:14.738Z,9.3123
2024-01-05T21:15:21.658Z,9.4986
2024-01-05T21:20:28.289Z,8.5993
2024-01-05T21:25:34.975Z,5.7799
2024-01-05T21:30:41.614Z,5.3536
2024-01-05T21:35:48.213Z,12.9817
2024-01-05T21:40:54.797Z,10.4267
2024-01-05T21:46:01.385Z,6.567
2024-01-05T21:51:07.962Z,8.3192
2024-01-05T21:56:14.747Z,6.2189
2024-01-05T22:01:21.419Z,9.6071
2024-01-05T22:06:27.834Z,8.8502
2024-01-05T22:11:34.136Z,9.2758
2024-01-05T22:16:40.991Z,10.323
2024-01-05T22:21:47.478Z,7.1808
2024-01-05T22:26:54.013Z,8.0607
2024-01-05T22:32:00.773Z,6.6193
2024-01-05T22:37:07.699Z,7.0006
2024-01-05T22:42:14.135Z,7.1991
2024-01-05T22:47:20.746Z,6.9228
2024-01-05T22:52:27.525Z,8.8242
2024-01-05T22:57:34.530Z,9.8182
2024-01-05T23:02:40.944Z,6.8736
2024-01-05T23:07:47.672Z,13.9082
2024-01-05T23:12:54.307Z,10.1355
2024-01-05T23:18:00.959Z,10.1703
2024-01-05T23:23:07.600Z,7.2135
2024-01-05T23:28:14.175Z,5.8295
2024-01-05T23:33:21.539Z,5.838
2024-01-05T23:38:27.774Z,7.8746
2024-01-05T23:43:34.136Z,7.5744
2024-01-05T23:48:40.905Z,6.542
2024-01-05T23:53:47.306Z,8.1684
2024-01-05T23:58:54.074Z,5.7398
